Time;durP1;ratioP1;P1;durP2;ratioP2;P2;SDS_P1;SDS_P2;PMS_P1;PMS_P2;Temp;Humidity;BMP_temperature;BMP_pressure;BME280_temperature;BME280_humidity;BME280_pressure;Samples;Min_cycle;Max_cycle;Signal;HPM_P1;HPM_P2
2023/04/23 00:01:05;;;;;;;20.88;12.35;;;;;;;;;;5056727;28;20025;-87
2023/04/23 00:03:34;;;;;;;19.48;11.15;;;;;;;;;;5059461;28;20009;-85
2023/04/23 00:06:04;;;;;;;23.58;12.85;;;;;;;;;;5058004;28;20028;-86
2023/04/23 00:08:31;;;;;;;19.83;10.85;;;;;;;;;;5059697;28;20499;-85
2023/04/23 00:10:57;;;;;;;32.75;13.70;;;;;;;;;;5056992;28;20035;-84
2023/04/23 00:13:22;;;;;;;27.08;12.98;;;;;;;;;;5059360;28;20021;-85
2023/04/23 00:15:48;;;;;;;24.58;12.90;;;;;;;;;;5074978;28;20025;-86
2023/04/23 00:18:15;;;;;;;20.60;12.27;;;;;;;;;;5074546;28;20437;-83
2023/04/23 00:20:42;;;;;;;22.25;12.90;;;;;;;;;;5058775;28;20051;-86
2023/04/23 00:23:09;;;;;;;20.70;12.05;;;;;;;;;;5059871;28;20516;-87
2023/04/23 00:25:34;;;;;;;17.83;12.00;;;;;;;;;;5059098;28;20028;-86
2023/04/23 00:28:02;;;;;;;25.92;12.45;;;;;;;;;;5058726;28;20028;-86
2023/04/23 00:30:28;;;;;;;23.23;11.90;;;;;;;;;;5059784;28;20021;-87
2023/04/23 00:32:54;;;;;;;18.42;11.93;;;;;;;;;;5058479;28;20029;-85
2023/04/23 00:35:19;;;;;;;17.08;11.45;;;;;;;;;;5058003;28;20432;-82
2023/04/23 00:37:45;;;;;;;17.33;10.23;;;;;;;;;;5057920;28;20503;-85
2023/04/23 00:40:12;;;;;;;19.05;12.07;;;;;;;;;;5058851;28;20110;-86
2023/04/23 00:42:38;;;;;;;17.65;9.27;;;;;;;;;;5055873;28;20017;-84
2023/04/23 00:45:07;;;;;;;19.05;10.10;;;;;;;;;;5058044;28;20021;-85
2023/04/23 00:47:34;;;;;;;17.80;9.65;;;;;;;;;;5058177;28;20032;-87
2023/04/23 00:50:00;;;;;;;20.42;10.43;;;;;;;;;;5057580;28;20097;-87
2023/04/23 00:52:27;;;;;;;16.58;9.98;;;;;;;;;;5057740;28;20551;-85
2023/04/23 00:54:53;;;;;;;11.70;7.93;;;;;;;;;;5060266;28;20412;-86
2023/04/23 00:57:19;;;;;;;18.73;10.05;;;;;;;;;;5057926;28;20052;-86
2023/04/23 00:59:45;;;;;;;14.80;8.52;;;;;;;;;;5059906;28;20537;-87
2023/04/23 01:02:11;;;;;;;15.82;8.70;;;;;;;;;;5059007;28;20055;-86
2023/04/23 01:04:37;;;;;;;16.00;9.10;;;;;;;;;;5057618;28;20090;-86
2023/04/23 01:07:03;;;;;;;18.58;9.98;;;;;;;;;;5058054;28;20380;-87
2023/04/23 01:09:28;;;;;;;15.43;9.57;;;;;;;;;;5058425;28;20103;-87
2023/04/23 01:11:56;;;;;;;13.48;9.00;;;;;;;;;;5057047;28;20453;-87
2023/04/23 01:14:22;;;;;;;14.98;8.75;;;;;;;;;;5058431;28;20667;-84
2023/04/23 01:16:48;;;;;;;12.77;8.45;;;;;;;;;;5057159;28;20056;-87
2023/04/23 01:19:14;;;;;;;13.43;8.05;;;;;;;;;;5056734;28;20021;-87
2023/04/23 01:21:41;;;;;;;19.55;10.07;;;;;;;;;;5055941;28;20032;-87
2023/04/23 01:24:08;;;;;;;15.52;9.48;;;;;;;;;;5056681;28;20055;-87
2023/04/23 01:26:34;;;;;;;19.92;9.50;;;;;;;;;;5055098;28;20036;-86
2023/04/23 01:29:00;;;;;;;19.67;10.07;;;;;;;;;;5055864;28;20009;-85
2023/04/23 01:31:29;;;;;;;15.55;9.40;;;;;;;;;;5054682;28;20623;-86
2023/04/23 01:33:56;;;;;;;19.10;9.38;;;;;;;;;;5056161;28;20052;-85
2023/04/23 01:36:23;;;;;;;23.98;9.23;;;;;;;;;;5056016;28;20388;-87
2023/04/23 01:38:49;;;;;;;12.82;8.85;;;;;;;;;;5040090;28;20055;-86
2023/04/23 01:41:14;;;;;;;14.90;10.32;;;;;;;;;;5057576;28;20029;-84
2023/04/23 01:43:44;;;;;;;24.33;10.73;;;;;;;;;;5073664;28;20012;-86
2023/04/23 01:46:09;;;;;;;17.90;11.23;;;;;;;;;;5056210;28;20081;-85
2023/04/23 01:48:36;;;;;;;18.08;11.02;;;;;;;;;;5073011;28;20144;-88
2023/04/23 01:51:01;;;;;;;17.90;10.90;;;;;;;;;;5056564;28;20025;-87
2023/04/23 01:53:27;;;;;;;17.85;11.10;;;;;;;;;;5055619;28;20186;-87
2023/04/23 01:55:55;;;;;;;14.45;10.10;;;;;;;;;;5057169;28;20029;-86
2023/04/23 01:58:22;;;;;;;21.05;10.75;;;;;;;;;;5057336;28;20029;-87
2023/04/23 02:00:48;;;;;;;15.13;9.25;;;;;;;;;;5058651;28;20036;-85
2023/04/23 02:03:14;;;;;;;17.80;9.32;;;;;;;;;;5060120;28;20096;-85
2023/04/23 02:05:40;;;;;;;18.45;8.85;;;;;;;;;;5056047;28;20078;-85
2023/04/23 02:08:06;;;;;;;19.92;10.50;;;;;;;;;;5055940;28;20119;-85
2023/04/23 02:10:32;;;;;;;13.25;9.23;;;;;;;;;;5057020;28;20051;-86
2023/04/23 02:12:58;;;;;;;13.95;8.90;;;;;;;;;;5055588;28;20112;-82
2023/04/23 02:15:24;;;;;;;15.32;7.80;;;;;;;;;;5059585;28;20381;-82
2023/04/23 02:17:51;;;;;;;15.35;8.32;;;;;;;;;;5059704;28;20037;-86
2023/04/23 02:20:17;;;;;;;12.25;8.40;;;;;;;;;;5059197;28;20040;-85
2023/04/23 02:22:43;;;;;;;13.30;9.50;;;;;;;;;;5060073;28;20481;-84
2023/04/23 02:25:09;;;;;;;14.32;8.48;;;;;;;;;;5061512;28;20025;-81
2023/04/23 02:27:34;;;;;;;13.52;8.75;;;;;;;;;;5059973;28;20036;-86
2023/04/23 02:30:00;;;;;;;13.40;9.27;;;;;;;;;;5059282;28;20021;-86
2023/04/23 02:32:26;;;;;;;16.90;10.07;;;;;;;;;;5059155;28;20169;-85
2023/04/23 02:34:53;;;;;;;20.27;9.07;;;;;;;;;;5060303;28;20032;-86
2023/04/23 02:37:18;;;;;;;12.93;8.43;;;;;;;;;;5061161;28;20043;-85
2023/04/23 02:39:44;;;;;;;14.10;9.05;;;;;;;;;;5061390;28;20111;-86
2023/04/23 02:42:10;;;;;;;17.40;9.38;;;;;;;;;;5060349;28;20385;-85
2023/04/23 02:44:35;;;;;;;17.58;8.63;;;;;;;;;;5060610;28;20092;-84
2023/04/23 02:47:01;;;;;;;14.63;8.27;;;;;;;;;;5061411;28;20057;-85
2023/04/23 02:49:27;;;;;;;14.88;7.80;;;;;;;;;;5061270;28;20050;-84
2023/04/23 02:51:53;;;;;;;12.90;8.07;;;;;;;;;;5062008;28;20033;-87
2023/04/23 02:54:18;;;;;;;17.90;8.05;;;;;;;;;;5060879;28;20421;-82
2023/04/23 02:56:44;;;;;;;17.98;7.95;;;;;;;;;;5058969;28;20040;-86
2023/04/23 02:59:10;;;;;;;16.05;8.63;;;;;;;;;;5058128;28;20086;-84
2023/04/23 03:01:35;;;;;;;14.75;8.55;;;;;;;;;;5060264;28;20028;-86
2023/04/23 03:04:02;;;;;;;13.32;8.38;;;;;;;;;;5060526;28;20024;-86
2023/04/23 03:06:28;;;;;;;17.30;8.18;;;;;;;;;;5061216;28;20023;-85
2023/04/23 03:08:54;;;;;;;17.58;8.18;;;;;;;;;;5060039;28;20036;-85
2023/04/23 03:11:21;;;;;;;14.10;8.20;;;;;;;;;;5059208;28;20024;-85
2023/04/23 03:13:47;;;;;;;14.90;8.52;;;;;;;;;;5060692;28;20025;-86
2023/04/23 03:16:12;;;;;;;12.90;8.63;;;;;;;;;;5059900;28;20087;-84
2023/04/23 03:18:38;;;;;;;14.07;8.38;;;;;;;;;;5061851;28;20032;-86
2023/04/23 03:21:03;;;;;;;19.73;9.68;;;;;;;;;;5060990;28;20052;-86
2023/04/23 03:23:29;;;;;;;16.58;8.82;;;;;;;;;;5061030;28;20472;-86
2023/04/23 03:25:54;;;;;;;13.95;8.52;;;;;;;;;;5058293;28;20155;-84
2023/04/23 03:28:20;;;;;;;21.38;9.20;;;;;;;;;;5060811;28;20024;-82
2023/04/23 03:30:45;;;;;;;13.07;8.35;;;;;;;;;;5060187;28;20033;-83
2023/04/23 03:33:11;;;;;;;14.63;8.23;;;;;;;;;;5056104;28;20041;-85
2023/04/23 03:35:36;;;;;;;12.15;8.35;;;;;;;;;;5058820;28;20055;-86
2023/04/23 03:38:02;;;;;;;15.20;8.38;;;;;;;;;;5059055;28;20040;-86
2023/04/23 03:40:27;;;;;;;15.63;9.50;;;;;;;;;;5059576;28;20370;-87
2023/04/23 03:42:53;;;;;;;14.05;8.05;;;;;;;;;;5058673;28;20013;-86
2023/04/23 03:45:18;;;;;;;12.15;7.80;;;;;;;;;;5061640;28;20028;-86
2023/04/23 03:47:44;;;;;;;14.98;8.25;;;;;;;;;;5059242;28;20029;-84
2023/04/23 03:50:12;;;;;;;16.25;8.77;;;;;;;;;;5059839;28;20086;-86
2023/04/23 03:52:39;;;;;;;13.90;8.10;;;;;;;;;;5060246;28;20120;-87
2023/04/23 03:55:04;;;;;;;14.57;8.77;;;;;;;;;;5058922;28;20021;-85
2023/04/23 03:57:31;;;;;;;13.48;7.90;;;;;;;;;;5058380;28;20032;-85
2023/04/23 03:59:59;;;;;;;14.27;8.10;;;;;;;;;;5060399;28;20020;-85
2023/04/23 04:02:25;;;;;;;14.43;8.00;;;;;;;;;;5059407;28;20021;-87
2023/04/23 04:04:50;;;;;;;13.70;7.97;;;;;;;;;;5059337;28;20033;-87
2023/04/23 04:07:17;;;;;;;13.07;7.57;;;;;;;;;;5059320;28;20127;-87
2023/04/23 04:09:42;;;;;;;18.70;8.65;;;;;;;;;;5059257;28;20115;-86
2023/04/23 04:12:08;;;;;;;13.00;8.27;;;;;;;;;;5060230;28;20052;-85
2023/04/23 04:14:33;;;;;;;15.13;8.02;;;;;;;;;;5058530;28;20013;-86
2023/04/23 04:16:59;;;;;;;8.95;7.15;;;;;;;;;;5058901;28;20005;-85
2023/04/23 04:19:24;;;;;;;12.57;7.90;;;;;;;;;;5058270;28;20127;-80
2023/04/23 04:21:51;;;;;;;12.07;8.40;;;;;;;;;;5058406;28;20025;-83
2023/04/23 04:24:17;;;;;;;15.57;7.72;;;;;;;;;;5059738;28;20464;-86
2023/04/23 04:26:44;;;;;;;22.73;8.40;;;;;;;;;;5042137;28;20032;-82
2023/04/23 04:29:10;;;;;;;18.25;8.07;;;;;;;;;;5059375;28;20021;-86
2023/04/23 04:31:36;;;;;;;21.30;9.40;;;;;;;;;;5058921;28;20366;-84
2023/04/23 04:34:03;;;;;;;11.60;6.95;;;;;;;;;;5058096;28;20104;-86
2023/04/23 04:36:29;;;;;;;15.35;7.90;;;;;;;;;;5060656;28;20085;-85
2023/04/23 04:38:57;;;;;;;28.27;8.02;;;;;;;;;;5057076;28;20063;-85
2023/04/23 04:41:24;;;;;;;27.23;11.77;;;;;;;;;;5057228;28;20484;-84
2023/04/23 04:43:50;;;;;;;15.07;7.57;;;;;;;;;;5057037;28;20071;-86
2023/04/23 04:46:19;;;;;;;16.17;8.82;;;;;;;;;;5058009;28;20039;-85
2023/04/23 04:48:46;;;;;;;23.73;8.57;;;;;;;;;;5058765;28;20041;-85
2023/04/23 04:51:11;;;;;;;13.05;7.55;;;;;;;;;;5040799;28;20032;-86
2023/04/23 04:53:37;;;;;;;12.68;8.15;;;;;;;;;;5058522;28;20032;-87
2023/04/23 04:56:02;;;;;;;11.65;7.82;;;;;;;;;;5059372;28;20029;-83
2023/04/23 04:58:28;;;;;;;16.02;8.00;;;;;;;;;;5057311;28;20044;-85
2023/04/23 05:00:54;;;;;;;12.30;7.80;;;;;;;;;;5057621;28;20092;-86
2023/04/23 05:03:20;;;;;;;15.95;7.45;;;;;;;;;;5058028;28;20111;-88
2023/04/23 05:05:49;;;;;;;11.82;7.78;;;;;;;;;;5056436;28;20029;-85
2023/04/23 05:08:17;;;;;;;18.00;8.55;;;;;;;;;;5057628;28;20080;-86
2023/04/23 05:10:43;;;;;;;10.95;7.43;;;;;;;;;;5058314;28;20044;-85
2023/04/23 05:13:09;;;;;;;12.85;7.57;;;;;;;;;;5056279;28;20388;-86
2023/04/23 05:15:34;;;;;;;10.30;7.20;;;;;;;;;;5055593;28;20025;-84
2023/04/23 05:18:03;;;;;;;16.13;6.72;;;;;;;;;;5055861;28;20495;-85
2023/04/23 05:20:28;;;;;;;26.75;8.65;;;;;;;;;;5056686;28;20029;-82
2023/04/23 05:22:54;;;;;;;13.50;7.57;;;;;;;;;;5059491;28;20040;-85
2023/04/23 05:25:19;;;;;;;14.13;7.13;;;;;;;;;;5058601;28;20021;-87
2023/04/23 05:27:45;;;;;;;10.15;7.40;;;;;;;;;;5058393;28;20047;-86
2023/04/23 05:30:11;;;;;;;11.80;6.80;;;;;;;;;;5057852;28;20333;-88
2023/04/23 05:32:37;;;;;;;14.05;8.57;;;;;;;;;;5058422;28;20029;-86
2023/04/23 05:35:03;;;;;;;9.82;7.03;;;;;;;;;;5041884;28;20041;-85
2023/04/23 05:37:28;;;;;;;12.07;6.88;;;;;;;;;;5059576;28;20021;-87
2023/04/23 05:39:54;;;;;;;13.10;7.80;;;;;;;;;;5058093;28;20037;-83
2023/04/23 05:42:20;;;;;;;13.60;7.40;;;;;;;;;;5057400;28;20009;-85
2023/04/23 05:44:46;;;;;;;11.13;6.95;;;;;;;;;;5057751;28;20489;-84
2023/04/23 05:47:13;;;;;;;16.20;6.95;;;;;;;;;;5058882;28;20044;-82
2023/04/23 05:49:38;;;;;;;18.30;7.40;;;;;;;;;;5061968;28;20448;-86
2023/04/23 05:52:04;;;;;;;16.85;8.40;;;;;;;;;;5062743;28;20025;-85
2023/04/23 05:54:30;;;;;;;10.48;6.70;;;;;;;;;;5043974;28;20032;-88
2023/04/23 05:56:56;;;;;;;16.55;7.07;;;;;;;;;;5062211;28;20028;-86
2023/04/23 05:59:22;;;;;;;10.55;7.25;;;;;;;;;;5060415;28;20033;-87
2023/04/23 06:01:48;;;;;;;9.52;6.68;;;;;;;;;;5060913;28;20029;-85
2023/04/23 06:04:14;;;;;;;16.30;6.57;;;;;;;;;;5062390;28;20163;-85
2023/04/23 06:06:40;;;;;;;12.75;7.47;;;;;;;;;;5062341;28;20079;-87
2023/04/23 06:09:05;;;;;;;10.10;6.22;;;;;;;;;;5062485;28;20032;-86
2023/04/23 06:11:31;;;;;;;12.18;7.00;;;;;;;;;;5061656;28;20658;-85
2023/04/23 06:13:57;;;;;;;9.77;7.15;;;;;;;;;;5061075;28;20024;-87
2023/04/23 06:16:24;;;;;;;13.13;6.82;;;;;;;;;;5060216;28;20020;-86
2023/04/23 06:18:49;;;;;;;13.80;6.07;;;;;;;;;;5061383;28;20163;-85
2023/04/23 06:21:15;;;;;;;8.57;6.13;;;;;;;;;;5060636;28;20060;-82
2023/04/23 06:23:40;;;;;;;8.13;5.97;;;;;;;;;;5061395;28;20017;-84
2023/04/23 06:26:06;;;;;;;12.88;6.85;;;;;;;;;;5061682;28;20057;-87
2023/04/23 06:28:31;;;;;;;12.55;6.05;;;;;;;;;;5059560;28;20142;-82
2023/04/23 06:30:57;;;;;;;12.70;6.57;;;;;;;;;;5057930;28;20040;-86
2023/04/23 06:33:22;;;;;;;13.20;5.72;;;;;;;;;;5058531;28;20025;-86
2023/04/23 06:35:48;;;;;;;7.80;5.97;;;;;;;;;;5061728;28;20468;-85
2023/04/23 06:38:13;;;;;;;9.63;6.20;;;;;;;;;;5059866;28;20044;-87
2023/04/23 06:40:39;;;;;;;20.85;7.10;;;;;;;;;;5061167;28;20211;-86
2023/04/23 06:43:06;;;;;;;9.18;5.95;;;;;;;;;;5059086;28;20023;-85
2023/04/23 06:45:33;;;;;;;9.57;5.68;;;;;;;;;;5059175;28;20025;-86
2023/04/23 06:47:59;;;;;;;7.95;5.68;;;;;;;;;;5061486;28;20382;-87
2023/04/23 06:50:25;;;;;;;11.45;5.55;;;;;;;;;;5061543;28;20033;-84
2023/04/23 06:52:52;;;;;;;13.02;5.95;;;;;;;;;;5061706;28;20128;-87
2023/04/23 06:55:18;;;;;;;10.27;5.07;;;;;;;;;;5061314;28;20408;-86
2023/04/23 06:57:43;;;;;;;9.77;5.72;;;;;;;;;;5063551;28;20044;-83
2023/04/23 07:00:10;;;;;;;8.38;5.05;;;;;;;;;;5058065;28;20030;-87
2023/04/23 07:02:36;;;;;;;13.77;5.25;;;;;;;;;;5057796;28;20134;-84
2023/04/23 07:05:02;;;;;;;8.82;5.10;;;;;;;;;;5057788;28;20044;-85
2023/04/23 07:07:27;;;;;;;11.60;6.03;;;;;;;;;;5058687;28;20029;-86
2023/04/23 07:09:53;;;;;;;11.15;6.05;;;;;;;;;;5062119;28;20195;-85
2023/04/23 07:12:18;;;;;;;11.50;5.63;;;;;;;;;;5059890;28;20028;-87
2023/04/23 07:14:44;;;;;;;8.90;5.80;;;;;;;;;;5060434;28;20025;-85
2023/04/23 07:17:10;;;;;;;7.97;5.95;;;;;;;;;;5060435;28;20032;-86
2023/04/23 07:19:36;;;;;;;12.95;6.53;;;;;;;;;;5059857;28;20047;-85
2023/04/23 07:22:02;;;;;;;11.38;5.82;;;;;;;;;;5059189;28;20025;-85
2023/04/23 07:24:27;;;;;;;10.95;6.07;;;;;;;;;;5059892;28;20546;-85
2023/04/23 07:26:53;;;;;;;6.30;5.30;;;;;;;;;;5057496;28;20032;-81
2023/04/23 07:29:19;;;;;;;10.05;4.90;;;;;;;;;;5058998;28;20021;-86
2023/04/23 07:31:45;;;;;;;11.82;5.88;;;;;;;;;;5059061;28;20035;-87
2023/04/23 07:34:11;;;;;;;8.07;4.43;;;;;;;;;;5058948;28;20064;-88
2023/04/23 07:36:37;;;;;;;5.47;3.75;;;;;;;;;;5057392;28;20101;-86
2023/04/23 07:39:04;;;;;;;11.10;4.90;;;;;;;;;;5057599;28;20150;-87
2023/04/23 07:41:29;;;;;;;6.85;4.22;;;;;;;;;;5058809;28;20028;-82
2023/04/23 07:43:55;;;;;;;9.32;3.65;;;;;;;;;;5057744;28;20025;-88
2023/04/23 07:46:20;;;;;;;6.55;4.13;;;;;;;;;;5058821;28;20056;-87
2023/04/23 07:48:46;;;;;;;5.85;3.90;;;;;;;;;;5059035;28;20048;-85
2023/04/23 07:51:11;;;;;;;5.95;3.35;;;;;;;;;;5058446;28;20029;-87
2023/04/23 07:53:42;;;;;;;7.20;3.08;;;;;;;;;;5058179;28;20033;-86
2023/04/23 07:56:08;;;;;;;8.98;3.72;;;;;;;;;;5040786;28;20029;-86
2023/04/23 07:58:34;;;;;;;4.85;3.10;;;;;;;;;;5059387;28;20512;-84
2023/04/23 08:01:01;;;;;;;5.10;3.70;;;;;;;;;;5059553;28;20382;-86
2023/04/23 08:03:27;;;;;;;4.32;3.30;;;;;;;;;;5058924;28;20501;-86
2023/04/23 08:05:53;;;;;;;6.30;3.08;;;;;;;;;;5059282;28;20033;-86
2023/04/23 08:08:18;;;;;;;2.97;2.53;;;;;;;;;;5057325;28;20083;-89
2023/04/23 08:10:44;;;;;;;12.52;3.65;;;;;;;;;;5057764;28;20044;-86
2023/04/23 08:13:10;;;;;;;4.95;2.97;;;;;;;;;;5058249;28;20025;-86
2023/04/23 08:15:36;;;;;;;5.47;3.25;;;;;;;;;;5060264;28;20235;-89
2023/04/23 08:18:03;;;;;;;4.55;2.78;;;;;;;;;;5058469;28;20020;-85
2023/04/23 08:20:31;;;;;;;5.10;2.85;;;;;;;;;;5058168;28;20019;-87
2023/04/23 08:22:56;;;;;;;2.97;1.90;;;;;;;;;;5061185;28;20037;-86
2023/04/23 08:25:22;;;;;;;2.90;2.03;;;;;;;;;;5059436;28;20055;-84
2023/04/23 08:27:48;;;;;;;5.07;3.22;;;;;;;;;;5058690;28;20037;-85
2023/04/23 08:30:14;;;;;;;5.15;2.85;;;;;;;;;;5060547;28;20031;-86
2023/04/23 08:32:40;;;;;;;3.35;2.58;;;;;;;;;;5059387;28;20045;-87
2023/04/23 08:35:07;;;;;;;7.75;2.22;;;;;;;;;;5060000;28;20048;-85
2023/04/23 08:37:33;;;;;;;4.10;1.67;;;;;;;;;;5061430;28;20024;-86
2023/04/23 08:40:00;;;;;;;4.45;1.90;;;;;;;;;;5059325;28;20025;-85
2023/04/23 08:42:55;;;;;;;3.67;1.48;;;;;;;;;;5059248;28;20439;-87
2023/04/23 08:45:21;;;;;;;3.92;2.13;;;;;;;;;;5054162;28;20038;-84
2023/04/23 08:47:46;;;;;;;2.35;1.70;;;;;;;;;;5058945;28;20025;-82
2023/04/23 08:50:18;;;;;;;2.10;1.70;;;;;;;;;;5058566;28;20072;-85
2023/04/23 08:52:55;;;;;;;2.80;1.75;;;;;;;;;;5059358;28;20108;-87
2023/04/23 08:55:22;;;;;;;2.22;1.55;;;;;;;;;;5057424;28;20036;-86
2023/04/23 08:57:49;;;;;;;3.63;2.15;;;;;;;;;;5042938;28;20443;-88
2023/04/23 09:00:19;;;;;;;4.53;1.80;;;;;;;;;;5058928;28;20115;-85
2023/04/23 09:02:47;;;;;;;3.33;1.98;;;;;;;;;;5042009;28;20033;-85
2023/04/23 09:05:13;;;;;;;3.40;1.42;;;;;;;;;;5060255;28;20025;-87
2023/04/23 09:07:40;;;;;;;4.90;1.75;;;;;;;;;;5057884;28;20338;-84
2023/04/23 09:10:10;;;;;;;4.07;1.40;;;;;;;;;;5057746;28;20160;-88
2023/04/23 09:12:37;;;;;;;2.40;2.20;;;;;;;;;;5059830;28;20024;-88
2023/04/23 09:15:13;;;;;;;2.88;1.88;;;;;;;;;;5058565;28;20115;-86
2023/04/23 09:17:40;;;;;;;3.45;1.63;;;;;;;;;;5057710;28;20099;-86
2023/04/23 09:20:08;;;;;;;5.22;1.63;;;;;;;;;;5059363;28;20052;-86
2023/04/23 09:22:52;;;;;;;2.60;1.83;;;;;;;;;;5060030;28;20023;-88
2023/04/23 09:25:20;;;;;;;5.00;1.73;;;;;;;;;;5060437;28;20054;-87
2023/04/23 09:27:50;;;;;;;2.28;1.52;;;;;;;;;;5060872;28;20040;-88
2023/04/23 09:30:18;;;;;;;2.67;1.60;;;;;;;;;;5059549;28;20099;-87
2023/04/23 09:32:45;;;;;;;3.75;1.85;;;;;;;;;;5059627;28;20032;-87
2023/04/23 09:35:16;;;;;;;2.63;1.60;;;;;;;;;;5059825;28;20032;-84
2023/04/23 09:37:47;;;;;;;2.17;1.73;;;;;;;;;;5057581;28;20088;-83
2023/04/23 09:40:19;;;;;;;5.38;1.70;;;;;;;;;;5059065;28;20110;-86
2023/04/23 09:42:51;;;;;;;20.48;3.55;;;;;;;;;;5042651;28;20025;-87
2023/04/23 09:45:17;;;;;;;7.57;1.52;;;;;;;;;;5058519;28;20401;-85
2023/04/23 09:47:51;;;;;;;6.22;1.80;;;;;;;;;;5060113;28;20024;-85
2023/04/23 09:50:19;;;;;;;3.88;1.55;;;;;;;;;;5057668;28;20110;-87
2023/04/23 09:52:44;;;;;;;2.38;1.60;;;;;;;;;;5060204;28;20029;-88
2023/04/23 09:55:13;;;;;;;2.50;1.77;;;;;;;;;;5061077;28;20008;-84
2023/04/23 09:57:43;;;;;;;5.35;2.40;;;;;;;;;;5064126;28;20031;-85
2023/04/23 10:00:17;;;;;;;3.38;1.80;;;;;;;;;;5059333;28;20021;-87
2023/04/23 10:02:50;;;;;;;4.00;1.90;;;;;;;;;;5062182;28;20013;-86
2023/04/23 10:05:21;;;;;;;2.13;1.52;;;;;;;;;;5062010;28;20092;-86
2023/04/23 10:07:48;;;;;;;1.58;1.48;;;;;;;;;;5062138;28;20110;-85
2023/04/23 10:10:15;;;;;;;3.72;1.50;;;;;;;;;;5061718;28;20025;-86
2023/04/23 10:12:42;;;;;;;2.83;1.42;;;;;;;;;;5059505;28;20477;-85
2023/04/23 10:15:09;;;;;;;1.67;1.58;;;;;;;;;;5056892;28;20574;-87
2023/04/23 10:17:35;;;;;;;4.03;1.98;;;;;;;;;;5059382;28;20052;-87
2023/04/23 10:20:06;;;;;;;2.88;1.35;;;;;;;;;;5061240;28;20021;-86
2023/04/23 10:22:33;;;;;;;10.10;2.60;;;;;;;;;;5057684;28;20031;-87
2023/04/23 10:25:07;;;;;;;2.53;1.52;;;;;;;;;;5059585;28;20005;-87
2023/04/23 10:27:39;;;;;;;3.33;1.67;;;;;;;;;;5060437;28;20036;-83
2023/04/23 10:30:06;;;;;;;2.13;1.60;;;;;;;;;;5061035;28;20045;-86
2023/04/23 10:32:36;;;;;;;1.88;1.65;;;;;;;;;;5060173;28;20036;-85
2023/04/23 10:35:01;;;;;;;4.00;1.70;;;;;;;;;;5060993;28;20028;-87
2023/04/23 10:37:28;;;;;;;2.60;1.80;;;;;;;;;;5066587;28;20025;-88
2023/04/23 10:39:55;;;;;;;5.40;2.00;;;;;;;;;;5064326;28;20037;-87
2023/04/23 10:42:22;;;;;;;2.15;1.67;;;;;;;;;;5065316;28;20032;-86
2023/04/23 10:44:47;;;;;;;4.20;2.03;;;;;;;;;;5063474;28;20055;-87
2023/04/23 10:47:15;;;;;;;5.10;2.63;;;;;;;;;;5064285;28;20033;-87
2023/04/23 10:49:41;;;;;;;6.38;2.95;;;;;;;;;;5064893;28;20049;-90
2023/04/23 10:52:16;;;;;;;10.50;3.65;;;;;;;;;;5048366;28;20048;-87
2023/04/23 10:54:42;;;;;;;5.43;2.00;;;;;;;;;;5046194;28;20104;-87
2023/04/23 10:57:09;;;;;;;8.82;1.95;;;;;;;;;;5061534;28;20027;-85
2023/04/23 10:59:38;;;;;;;4.82;2.03;;;;;;;;;;5062410;28;20052;-80
2023/04/23 11:02:10;;;;;;;3.42;1.83;;;;;;;;;;5060984;28;20029;-86
2023/04/23 11:04:41;;;;;;;3.00;2.03;;;;;;;;;;5061392;28;20041;-81
2023/04/23 11:07:08;;;;;;;13.30;2.95;;;;;;;;;;5064168;28;20044;-86
2023/04/23 11:09:34;;;;;;;1.80;1.52;;;;;;;;;;5063558;28;20413;-85
2023/04/23 11:12:01;;;;;;;5.35;4.50;;;;;;;;;;5061536;28;20041;-87
2023/04/23 11:14:40;;;;;;;3.38;2.28;;;;;;;;;;5061537;28;20484;-87
2023/04/23 11:17:06;;;;;;;4.60;2.30;;;;;;;;;;5061737;28;20055;-85
2023/04/23 11:19:39;;;;;;;3.75;2.08;;;;;;;;;;5060243;28;20500;-86
2023/04/23 11:22:12;;;;;;;3.58;1.98;;;;;;;;;;5062867;28;20724;-87
2023/04/23 11:24:41;;;;;;;6.05;2.10;;;;;;;;;;5061355;28;20032;-86
2023/04/23 11:27:11;;;;;;;3.28;2.28;;;;;;;;;;5045103;28;20607;-87
2023/04/23 11:29:39;;;;;;;2.47;1.80;;;;;;;;;;5060828;28;20032;-85
2023/04/23 11:32:12;;;;;;;5.43;2.47;;;;;;;;;;5062072;28;20025;-87
2023/04/23 11:34:40;;;;;;;4.20;2.25;;;;;;;;;;5062114;28;20029;-87
2023/04/23 11:37:09;;;;;;;9.65;2.83;;;;;;;;;;5062902;28;20031;-86
2023/04/23 11:39:35;;;;;;;4.25;2.80;;;;;;;;;;5061518;28;20086;-85
2023/04/23 11:42:04;;;;;;;9.10;3.60;;;;;;;;;;5061231;28;20481;-87
2023/04/23 11:44:30;;;;;;;4.75;2.58;;;;;;;;;;5062526;28;20067;-84
2023/04/23 11:47:00;;;;;;;6.15;2.10;;;;;;;;;;5061664;28;20037;-85
2023/04/23 11:49:25;;;;;;;5.00;2.08;;;;;;;;;;5058783;28;20033;-87
2023/04/23 11:51:51;;;;;;;3.50;2.15;;;;;;;;;;5061119;28;20027;-88
2023/04/23 11:54:18;;;;;;;4.75;2.30;;;;;;;;;;5060210;28;20039;-85
2023/04/23 11:56:44;;;;;;;3.42;2.20;;;;;;;;;;5060708;28;20029;-86
2023/04/23 11:59:10;;;;;;;3.88;2.17;;;;;;;;;;5059732;28;20459;-85
2023/04/23 12:01:51;;;;;;;3.97;1.90;;;;;;;;;;5059984;28;20032;-86
2023/04/23 12:04:28;;;;;;;3.58;1.88;;;;;;;;;;5061619;28;20498;-88
2023/04/23 12:06:55;;;;;;;9.57;2.63;;;;;;;;;;5063593;28;20017;-87
2023/04/23 12:09:24;;;;;;;4.57;2.35;;;;;;;;;;5062316;28;20069;-87
2023/04/23 12:11:50;;;;;;;2.90;1.85;;;;;;;;;;5062873;28;20029;-85
2023/04/23 12:14:16;;;;;;;2.58;1.98;;;;;;;;;;5060323;28;20017;-85
2023/04/23 12:16:44;;;;;;;2.25;1.50;;;;;;;;;;5059956;28;20104;-88
2023/04/23 12:19:17;;;;;;;3.47;2.13;;;;;;;;;;5061781;28;20492;-88
2023/04/23 12:21:54;;;;;;;4.20;2.13;;;;;;;;;;5061315;28;20036;-86
2023/04/23 12:24:27;;;;;;;2.35;1.83;;;;;;;;;;5059273;28;20451;-87
2023/04/23 12:26:59;;;;;;;2.55;1.42;;;;;;;;;;5061193;28;20024;-86
2023/04/23 12:29:25;;;;;;;1.80;1.52;;;;;;;;;;5059946;28;20238;-87
2023/04/23 12:31:52;;;;;;;3.90;1.95;;;;;;;;;;5060386;28;20032;-86
2023/04/23 12:34:20;;;;;;;3.15;1.63;;;;;;;;;;5043369;28;20116;-87
2023/04/23 12:36:48;;;;;;;8.68;2.60;;;;;;;;;;5059032;28;20059;-87
2023/04/23 12:39:32;;;;;;;2.40;1.52;;;;;;;;;;5058557;28;20120;-85
2023/04/23 12:42:04;;;;;;;1.52;1.42;;;;;;;;;;5061986;28;20044;-86
2023/04/23 12:44:36;;;;;;;2.83;1.40;;;;;;;;;;5062632;28;20033;-86
2023/04/23 12:47:14;;;;;;;4.10;1.63;;;;;;;;;;5061397;28;20024;-85
2023/04/23 12:49:41;;;;;;;5.40;1.88;;;;;;;;;;5061916;28;20073;-86
2023/04/23 12:52:07;;;;;;;1.35;1.20;;;;;;;;;;5062200;28;20029;-85
2023/04/23 12:54:37;;;;;;;4.72;1.60;;;;;;;;;;5062983;28;20037;-88
2023/04/23 12:57:06;;;;;;;10.30;2.10;;;;;;;;;;5062506;28;20036;-86
2023/04/23 12:59:32;;;;;;;2.40;1.50;;;;;;;;;;5065082;28;20058;-86
2023/04/23 13:02:00;;;;;;;2.25;1.50;;;;;;;;;;5062916;28;20035;-86
2023/04/23 13:04:31;;;;;;;4.15;1.45;;;;;;;;;;5045142;28;20052;-82
2023/04/23 13:06:57;;;;;;;13.48;2.90;;;;;;;;;;5061575;28;20037;-86
2023/04/23 13:09:23;;;;;;;2.72;1.77;;;;;;;;;;5061856;28;20044;-83
2023/04/23 13:11:50;;;;;;;3.05;1.70;;;;;;;;;;5065955;28;20025;-85
2023/04/23 13:14:16;;;;;;;6.80;1.92;;;;;;;;;;5048022;28;20353;-87
2023/04/23 13:16:42;;;;;;;5.43;1.80;;;;;;;;;;5062299;28;20036;-86
2023/04/23 13:19:08;;;;;;;2.65;1.75;;;;;;;;;;5065231;28;20029;-86
2023/04/23 13:21:34;;;;;;;2.90;1.80;;;;;;;;;;5062610;28;20033;-85
2023/04/23 13:23:59;;;;;;;2.40;1.77;;;;;;;;;;5061436;28;20077;-86
2023/04/23 13:26:29;;;;;;;2.58;1.80;;;;;;;;;;5059871;28;20083;-85
2023/04/23 13:28:54;;;;;;;4.82;2.10;;;;;;;;;;5061019;28;20078;-87
2023/04/23 13:31:23;;;;;;;2.55;1.48;;;;;;;;;;5063155;28;20029;-87
2023/04/23 13:33:50;;;;;;;2.30;1.65;;;;;;;;;;5064189;28;20029;-89
2023/04/23 13:36:16;;;;;;;4.40;1.60;;;;;;;;;;5062987;28;20126;-85
2023/04/23 13:38:41;;;;;;;2.50;1.55;;;;;;;;;;5060507;28;20025;-86
2023/04/23 13:41:07;;;;;;;2.30;1.58;;;;;;;;;;5060886;28;20044;-87
2023/04/23 13:43:32;;;;;;;4.00;1.55;;;;;;;;;;5065688;28;20009;-87
2023/04/23 13:45:59;;;;;;;2.20;1.55;;;;;;;;;;5064182;28;20033;-87
2023/04/23 13:48:29;;;;;;;1.25;1.15;;;;;;;;;;5060577;28;20028;-86
2023/04/23 13:51:02;;;;;;;3.17;1.73;;;;;;;;;;5064732;28;20025;-85
2023/04/23 13:53:27;;;;;;;2.53;1.55;;;;;;;;;;5061968;28;20078;-86
2023/04/23 13:55:54;;;;;;;3.45;1.60;;;;;;;;;;5061676;28;20052;-86
2023/04/23 13:58:20;;;;;;;2.70;1.40;;;;;;;;;;5059688;28;20132;-86
2023/04/23 14:00:46;;;;;;;2.80;1.65;;;;;;;;;;5059249;28;20047;-87
2023/04/23 14:03:11;;;;;;;2.45;1.50;;;;;;;;;;5061831;28;20063;-86
2023/04/23 14:05:37;;;;;;;2.42;1.60;;;;;;;;;;5063533;28;20594;-86
2023/04/23 14:08:04;;;;;;;3.70;2.70;;;;;;;;;;5062148;28;20089;-86
2023/04/23 14:10:30;;;;;;;3.78;1.55;;;;;;;;;;5063839;28;20056;-87
2023/04/23 14:12:56;;;;;;;6.68;2.08;;;;;;;;;;5062903;28;20419;-86
2023/04/23 14:15:22;;;;;;;1.92;1.50;;;;;;;;;;5063465;28;20029;-85
2023/04/23 14:17:48;;;;;;;2.65;1.70;;;;;;;;;;5062947;28;20048;-87
2023/04/23 14:20:18;;;;;;;5.00;2.08;;;;;;;;;;5062715;28;20019;-86
2023/04/23 14:22:49;;;;;;;2.97;1.90;;;;;;;;;;5066233;28;20017;-87
2023/04/23 14:25:23;;;;;;;3.15;1.70;;;;;;;;;;5065467;28;20024;-88
2023/04/23 14:27:51;;;;;;;2.85;1.58;;;;;;;;;;5062103;28;20124;-87
2023/04/23 14:30:20;;;;;;;2.70;1.77;;;;;;;;;;5064104;28;20527;-85
2023/04/23 14:32:46;;;;;;;3.17;1.80;;;;;;;;;;5060972;28;20119;-85
2023/04/23 14:35:15;;;;;;;3.05;1.80;;;;;;;;;;5061600;28;20128;-86